Time;durP1;ratioP1;P1;durP2;ratioP2;P2;SDS_P1;SDS_P2;PMS_P1;PMS_P2;Temp;Humidity;BMP_temperature;BMP_pressure;BME280_temperature;BME280_humidity;BME280_pressure;Samples;Min_cycle;Max_cycle;Signal;HPM_P1;HPM_P2
2023/02/27 00:00:16;;;;;;;8.88;5.40;;;;;;;-2.92;100.00;101889.38;685844;28;883;-64
2023/02/27 00:00:37;;;;;;;8.30;5.43;;;;;;;-2.92;100.00;101886.81;685231;28;1028;-63
2023/02/27 00:00:59;;;;;;;8.50;5.28;;;;;;;-2.93;100.00;101891.03;685777;28;965;-62
2023/02/27 00:01:22;;;;;;;10.63;5.90;;;;;;;-2.92;100.00;101892.81;684895;28;4389;-62
2023/02/27 00:01:43;;;;;;;9.68;6.00;;;;;;;-2.92;100.00;101887.69;684177;28;900;-64
2023/02/27 00:02:04;;;;;;;8.63;5.43;;;;;;;-2.92;100.00;101885.13;685027;28;988;-63
2023/02/27 00:02:24;;;;;;;7.80;5.10;;;;;;;-2.92;100.00;101890.25;684377;28;960;-62
2023/02/27 00:02:47;;;;;;;8.10;5.20;;;;;;;-2.93;100.00;101890.16;682080;28;960;-64
2023/02/27 00:03:07;;;;;;;9.50;5.35;;;;;;;-2.94;100.00;101894.38;684528;28;960;-63
2023/02/27 00:03:28;;;;;;;9.18;5.57;;;;;;;-2.96;100.00;101888.28;686385;28;956;-63
2023/02/27 00:03:48;;;;;;;9.10;5.50;;;;;;;-2.96;100.00;101892.50;686068;28;1143;-64
2023/02/27 00:04:08;;;;;;;9.80;5.40;;;;;;;-2.97;100.00;101886.47;685209;28;4310;-63
2023/02/27 00:04:29;;;;;;;8.20;5.40;;;;;;;-2.97;100.00;101890.72;686346;28;916;-63
2023/02/27 00:04:50;;;;;;;9.52;5.35;;;;;;;-2.98;100.00;101889.81;684649;28;1028;-63
2023/02/27 00:05:11;;;;;;;8.40;5.37;;;;;;;-2.98;100.00;101883.81;680681;28;1161;-63
2023/02/27 00:05:31;;;;;;;9.00;5.57;;;;;;;-2.97;100.00;101888.16;680512;28;1111;-62
2023/02/27 00:05:52;;;;;;;9.87;5.70;;;;;;;-2.95;100.00;101904.50;677911;28;2148;-63
2023/02/27 00:06:12;;;;;;;8.25;5.30;;;;;;;-2.94;100.00;101891.81;678814;28;2191;-63
2023/02/27 00:06:36;;;;;;;7.25;5.00;;;;;;;-2.92;100.00;101889.38;679481;28;1052;-63
2023/02/27 00:06:56;;;;;;;7.97;5.25;;;;;;;-2.94;100.00;101893.50;681089;28;1199;-63
2023/02/27 00:07:24;;;;;;;8.30;5.30;;;;;;;-2.93;100.00;101893.59;685143;28;4372;-63
2023/02/27 00:07:45;;;;;;;9.55;5.30;;;;;;;-2.94;100.00;101893.50;683236;28;1105;-63
2023/02/27 00:08:05;;;;;;;8.87;5.13;;;;;;;-2.94;100.00;101890.94;684680;28;1113;-63
2023/02/27 00:08:26;;;;;;;7.85;5.15;;;;;;;-2.95;100.00;101895.16;682720;28;885;-63
2023/02/27 00:08:46;;;;;;;8.07;5.30;;;;;;;-2.97;100.00;101886.47;684273;28;892;-62
2023/02/27 00:09:07;;;;;;;8.45;5.60;;;;;;;-2.96;100.00;101895.06;686114;28;825;-63
2023/02/27 00:09:27;;;;;;;8.68;5.45;;;;;;;-2.97;100.00;101889.03;685540;28;1075;-62
2023/02/27 00:09:48;;;;;;;7.93;5.20;;;;;;;-3.01;100.00;101888.72;684002;28;956;-64
2023/02/27 00:10:10;;;;;;;7.97;5.22;;;;;;;-3.02;100.00;101889.50;682144;28;4464;-62
2023/02/27 00:10:30;;;;;;;9.00;5.40;;;;;;;-3.01;100.00;101886.16;682933;28;941;-63
2023/02/27 00:10:51;;;;;;;8.20;4.90;;;;;;;-3.00;100.00;101888.84;683292;28;1218;-62
2023/02/27 00:11:14;;;;;;;8.77;5.20;;;;;;;-2.98;100.00;101889.81;683271;28;1016;-63
2023/02/27 00:11:37;;;;;;;8.43;5.40;;;;;;;-2.98;100.00;101886.38;686700;28;1007;-63
2023/02/27 00:11:57;;;;;;;8.55;5.50;;;;;;;-2.97;100.00;101883.03;686825;28;931;-63
2023/02/27 00:12:18;;;;;;;8.65;5.38;;;;;;;-3.01;100.00;101886.16;687427;28;791;-62
2023/02/27 00:12:38;;;;;;;8.63;5.27;;;;;;;-3.00;100.00;101890.53;685877;28;901;-64
2023/02/27 00:12:58;;;;;;;8.63;5.53;;;;;;;-3.00;100.00;101893.06;686171;28;902;-64
2023/02/27 00:13:21;;;;;;;9.67;5.20;;;;;;;-3.02;100.00;101886.94;685192;28;4363;-62
2023/02/27 00:13:42;;;;;;;8.25;5.13;;;;;;;-3.00;100.00;101887.97;686668;28;905;-63
2023/02/27 00:14:02;;;;;;;7.63;5.20;;;;;;;-3.02;100.00;101886.94;685531;28;904;-63
2023/02/27 00:14:23;;;;;;;8.50;5.43;;;;;;;-3.07;100.00;101894.31;685606;28;925;-63
2023/02/27 00:14:43;;;;;;;9.20;5.40;;;;;;;-3.01;100.00;101886.16;684176;28;1117;-63
2023/02/27 00:15:08;;;;;;;8.03;5.27;;;;;;;-2.98;100.00;101888.94;685265;28;782;-64
2023/02/27 00:15:30;;;;;;;9.23;5.63;;;;;;;-2.98;100.00;101886.38;686352;28;948;-63
2023/02/27 00:15:51;;;;;;;8.95;5.95;;;;;;;-2.98;100.00;101884.69;686244;28;1039;-62
2023/02/27 00:16:12;;;;;;;8.37;5.30;;;;;;;-2.97;100.00;101895.84;684724;28;4363;-62
2023/02/27 00:16:33;;;;;;;7.72;5.30;;;;;;;-2.99;100.00;101889.72;685715;28;992;-63
2023/02/27 00:16:53;;;;;;;8.30;5.65;;;;;;;-2.97;100.00;101885.59;685858;28;825;-63
2023/02/27 00:17:14;;;;;;;8.38;5.53;;;;;;;-2.98;100.00;101888.94;686176;28;904;-64
2023/02/27 00:17:34;;;;;;;8.03;5.40;;;;;;;-2.96;100.00;101895.06;685322;28;893;-63
2023/02/27 00:17:55;;;;;;;7.70;5.50;;;;;;;-2.98;100.00;101888.94;685644;28;1057;-63
2023/02/27 00:18:15;;;;;;;7.68;5.30;;;;;;;-3.02;100.00;101894.63;685187;28;1011;-63
2023/02/27 00:18:36;;;;;;;8.33;5.50;;;;;;;-3.03;100.00;101890.28;685353;28;955;-63
2023/02/27 00:18:59;;;;;;;9.13;5.70;;;;;;;-3.05;100.00;101887.63;685843;28;940;-63
2023/02/27 00:19:20;;;;;;;9.63;5.95;;;;;;;-3.05;100.00;101889.28;685045;28;4325;-64
2023/02/27 00:19:41;;;;;;;8.73;6.00;;;;;;;-3.04;100.00;101891.97;688093;28;966;-63
2023/02/27 00:20:02;;;;;;;10.02;6.65;;;;;;;-3.05;100.00;101894.41;687870;28;3751;-63
2023/02/27 00:20:25;;;;;;;9.80;7.00;;;;;;;-3.08;100.00;101888.28;688667;28;1078;-63
2023/02/27 00:20:45;;;;;;;10.52;7.35;;;;;;;-3.08;100.00;101892.53;687416;28;1149;-63
2023/02/27 00:21:05;;;;;;;10.63;7.63;;;;;;;-3.10;100.00;101887.31;687630;28;809;-63
2023/02/27 00:21:26;;;;;;;11.15;7.38;;;;;;;-3.12;100.00;101891.41;682597;28;1134;-63
2023/02/27 00:21:46;;;;;;;8.83;5.90;;;;;;;-3.14;100.00;101882.75;681994;28;1166;-64
2023/02/27 00:22:07;;;;;;;9.40;6.20;;;;;;;-3.14;100.00;101881.88;683243;28;4814;-63
2023/02/27 00:22:27;;;;;;;10.13;6.28;;;;;;;-3.14;100.00;101887.00;680041;28;1287;-63
2023/02/27 00:22:48;;;;;;;12.93;8.10;;;;;;;-3.14;100.00;101892.09;679702;28;1091;-63
2023/02/27 00:23:09;;;;;;;13.02;8.63;;;;;;;-3.13;100.00;101887.09;679978;28;1247;-64
2023/02/27 00:23:30;;;;;;;11.48;8.20;;;;;;;-3.15;100.00;101890.31;684664;28;944;-64
2023/02/27 00:23:50;;;;;;;10.63;7.43;;;;;;;-3.16;100.00;101881.75;685447;28;880;-63
2023/02/27 00:24:10;;;;;;;11.73;8.17;;;;;;;-3.19;100.00;101884.09;685458;28;880;-63
2023/02/27 00:24:33;;;;;;;12.35;8.40;;;;;;;-3.20;100.00;101887.41;685544;28;886;-64
2023/02/27 00:24:54;;;;;;;11.25;7.50;;;;;;;-3.21;100.00;101879.63;685135;28;1003;-64
2023/02/27 00:25:14;;;;;;;10.37;7.33;;;;;;;-3.21;100.00;101883.09;684129;28;4378;-63
2023/02/27 00:25:35;;;;;;;11.70;7.32;;;;;;;-3.13;100.00;101889.66;681684;28;928;-64
2023/02/27 00:25:56;;;;;;;11.52;7.60;;;;;;;-3.04;100.00;101885.97;680604;28;1175;-64
2023/02/27 00:26:16;;;;;;;11.13;7.67;;;;;;;-3.09;100.00;101880.50;681447;28;1968;-63
2023/02/27 00:26:36;;;;;;;11.38;7.72;;;;;;;-3.12;100.00;101886.28;682254;28;1194;-63
2023/02/27 00:26:57;;;;;;;11.17;7.70;;;;;;;-3.13;100.00;101887.09;679590;28;877;-63
2023/02/27 00:27:18;;;;;;;11.55;7.82;;;;;;;-3.16;100.00;101885.97;683388;28;961;-64
2023/02/27 00:27:38;;;;;;;11.68;7.88;;;;;;;-3.18;100.00;101885.88;681871;28;956;-62
2023/02/27 00:28:03;;;;;;;10.90;8.00;;;;;;;-3.10;100.00;101888.97;683205;28;854;-63
2023/02/27 00:28:27;;;;;;;11.18;7.22;;;;;;;-3.13;100.00;101878.50;681753;28;4814;-64
2023/02/27 00:28:47;;;;;;;12.18;7.57;;;;;;;-3.18;100.00;101888.44;682664;28;1692;-65
2023/02/27 00:29:08;;;;;;;11.35;7.50;;;;;;;-3.18;100.00;101887.56;681751;28;1008;-64
2023/02/27 00:29:29;;;;;;;10.55;7.25;;;;;;;-3.21;100.00;101879.63;682582;28;1015;-64
2023/02/27 00:29:49;;;;;;;10.10;7.10;;;;;;;-3.16;100.00;101885.97;684656;28;1503;-64
2023/02/27 00:30:13;;;;;;;10.48;7.28;;;;;;;-3.16;100.00;101886.84;684660;28;1287;-64
2023/02/27 00:30:36;;;;;;;11.02;7.45;;;;;;;-3.19;100.00;101878.09;679648;28;1502;-64
2023/02/27 00:30:56;;;;;;;11.07;7.13;;;;;;;-3.25;100.00;101889.66;679875;28;1039;-64
2023/02/27 00:31:17;;;;;;;11.80;7.10;;;;;;;-3.23;100.00;101886.34;678659;28;5257;-64
2023/02/27 00:31:37;;;;;;;10.50;7.20;;;;;;;-3.20;100.00;101887.41;679294;28;1016;-63
2023/02/27 00:31:57;;;;;;;10.33;7.33;;;;;;;-3.23;100.00;101888.91;679299;29;799;-65
2023/02/27 00:32:18;;;;;;;10.40;7.10;;;;;;;-3.29;100.00;101886.78;677467;29;892;-64
2023/02/27 00:32:41;;;;;;;9.80;6.72;;;;;;;-3.28;100.00;101881.78;681674;28;999;-64
2023/02/27 00:33:02;;;;;;;10.88;7.00;;;;;;;-3.29;100.00;101891.91;680218;28;1381;-64
2023/02/27 00:33:22;;;;;;;9.98;6.63;;;;;;;-3.25;100.00;101891.34;677414;29;1020;-63
2023/02/27 00:33:43;;;;;;;9.15;6.28;;;;;;;-3.27;100.00;101898.00;678146;28;1184;-64
2023/02/27 00:34:04;;;;;;;9.45;6.45;;;;;;;-3.26;100.00;101893.00;678554;28;1204;-65
2023/02/27 00:34:24;;;;;;;8.90;6.10;;;;;;;-3.24;100.00;101893.09;676903;29;4492;-64
2023/02/27 00:34:46;;;;;;;10.18;6.43;;;;;;;-3.24;100.00;101890.53;676981;29;1001;-66
2023/02/27 00:35:10;;;;;;;9.20;6.38;;;;;;;-3.23;100.00;101891.44;674831;29;1339;-63
2023/02/27 00:35:31;;;;;;;10.00;6.85;;;;;;;-3.23;100.00;101892.31;674629;29;973;-64
2023/02/27 00:35:56;;;;;;;9.40;6.27;;;;;;;-3.25;100.00;101894.78;677329;28;949;-64
2023/02/27 00:36:16;;;;;;;8.45;6.10;;;;;;;-3.28;100.00;101889.44;680741;28;802;-64
2023/02/27 00:36:36;;;;;;;9.03;6.30;;;;;;;-3.29;100.00;101889.34;683513;28;900;-65
2023/02/27 00:36:57;;;;;;;8.82;5.90;;;;;;;-3.29;100.00;101886.78;684550;28;1253;-64
2023/02/27 00:37:18;;;;;;;9.43;6.10;;;;;;;-3.30;100.00;101890.13;684592;28;4308;-60
2023/02/27 00:37:39;;;;;;;9.73;6.05;;;;;;;-3.29;100.00;101891.91;685051;28;960;-64
2023/02/27 00:37:59;;;;;;;9.27;6.32;;;;;;;-3.30;100.00;101892.69;682834;28;2045;-64
2023/02/27 00:38:23;;;;;;;8.35;5.75;;;;;;;-3.27;100.00;101893.78;680721;28;1242;-64
2023/02/27 00:38:44;;;;;;;8.70;5.70;;;;;;;-3.25;100.00;101892.22;682622;28;4990;-64
2023/02/27 00:39:06;;;;;;;9.33;6.07;;;;;;;-3.26;100.00;101894.69;683935;28;909;-66
2023/02/27 00:39:27;;;;;;;8.82;5.88;;;;;;;-3.26;100.00;101892.13;681118;28;1138;-64
2023/02/27 00:39:47;;;;;;;7.97;5.47;;;;;;;-3.28;100.00;101901.34;678861;28;1213;-64
2023/02/27 00:40:08;;;;;;;7.82;5.40;;;;;;;-3.26;100.00;101890.44;678815;29;4313;-64
2023/02/27 00:40:29;;;;;;;8.80;5.47;;;;;;;-3.30;100.00;101891.00;678075;29;814;-64
2023/02/27 00:40:50;;;;;;;9.80;5.70;;;;;;;-3.31;100.00;101893.44;675787;29;1360;-64
2023/02/27 00:41:10;;;;;;;9.73;6.47;;;;;;;-3.32;100.00;101894.25;674460;29;1013;-64
2023/02/27 00:41:30;;;;;;;9.90;6.43;;;;;;;-3.34;100.00;101895.78;674369;29;1098;-64
2023/02/27 00:41:51;;;;;;;7.57;5.40;;;;;;;-3.34;100.00;101893.25;676438;29;1221;-64
2023/02/27 00:42:11;;;;;;;9.23;5.40;;;;;;;-3.34;100.00;101898.34;678867;29;1604;-64
2023/02/27 00:42:32;;;;;;;9.63;5.40;;;;;;;-3.35;100.00;101897.47;677878;28;947;-65
2023/02/27 00:42:53;;;;;;;8.57;5.35;;;;;;;-3.35;100.00;101897.47;678579;28;1044;-64
2023/02/27 00:43:13;;;;;;;7.35;5.13;;;;;;;-3.33;100.00;101900.13;678869;28;4287;-64
2023/02/27 00:43:34;;;;;;;8.27;5.37;;;;;;;-3.34;100.00;101893.25;681414;28;1107;-64
2023/02/27 00:43:54;;;;;;;9.25;5.45;;;;;;;-3.34;100.00;101895.78;681595;28;758;-65
2023/02/27 00:44:15;;;;;;;8.20;5.33;;;;;;;-3.34;100.00;101891.56;679830;29;1425;-65
2023/02/27 00:44:35;;;;;;;8.77;5.60;;;;;;;-3.32;100.00;101892.56;679907;28;1167;-64
2023/02/27 00:44:56;;;;;;;8.30;5.13;;;;;;;-3.35;100.00;101891.44;682771;28;861;-64
2023/02/27 00:45:16;;;;;;;7.38;5.10;;;;;;;-3.34;100.00;101891.56;682756;28;1267;-64
2023/02/27 00:45:37;;;;;;;7.90;5.30;;;;;;;-3.31;100.00;101903.69;682192;28;944;-64
2023/02/27 00:45:57;;;;;;;7.97;5.20;;;;;;;-3.32;100.00;101891.69;683099;28;877;-65
2023/02/27 00:46:18;;;;;;;8.13;5.03;;;;;;;-3.33;100.00;101895.03;684840;28;4425;-66
2023/02/27 00:46:38;;;;;;;7.50;5.30;;;;;;;-3.37;100.00;101895.59;684316;28;876;-65
2023/02/27 00:46:59;;;;;;;8.27;5.10;;;;;;;-3.37;100.00;101898.13;683006;28;1398;-65
2023/02/27 00:47:20;;;;;;;7.22;4.82;;;;;;;-3.35;100.00;101896.56;684999;28;964;-66
2023/02/27 00:47:40;;;;;;;8.10;5.00;;;;;;;-3.36;100.00;101894.81;684147;28;904;-65
2023/02/27 00:48:03;;;;;;;7.32;4.88;;;;;;;-3.36;100.00;101892.25;684560;28;1028;-63
2023/02/27 00:48:23;;;;;;;7.45;4.90;;;;;;;-3.38;100.00;101896.34;681716;28;1391;-64
2023/02/27 00:48:44;;;;;;;7.63;5.10;;;;;;;-3.38;100.00;101898.91;682180;28;1011;-64
2023/02/27 00:49:04;;;;;;;7.80;4.93;;;;;;;-3.36;100.00;101895.69;684903;28;881;-64
2023/02/27 00:49:25;;;;;;;7.60;5.10;;;;;;;-3.35;100.00;101889.81;684419;28;4607;-64
2023/02/27 00:49:46;;;;;;;7.57;4.95;;;;;;;-3.34;100.00;101895.78;681938;28;1127;-63
2023/02/27 00:50:07;;;;;;;7.55;4.88;;;;;;;-3.34;100.00;101893.25;682998;28;881;-65
2023/02/27 00:50:28;;;;;;;7.20;5.15;;;;;;;-3.34;100.00;101895.78;684488;28;1071;-65
2023/02/27 00:50:49;;;;;;;8.65;5.13;;;;;;;-3.36;100.00;101898.25;684315;28;961;-64
2023/02/27 00:51:09;;;;;;;7.30;4.90;;;;;;;-3.34;100.00;101895.78;680323;28;1114;-65
2023/02/27 00:51:30;;;;;;;7.05;5.03;;;;;;;-3.36;100.00;101893.13;681526;28;1168;-64
2023/02/27 00:51:51;;;;;;;7.83;4.87;;;;;;;-3.36;100.00;101894.81;683828;28;809;-64
2023/02/27 00:52:11;;;;;;;8.35;4.88;;;;;;;-3.35;100.00;101897.47;685207;28;4352;-66
2023/02/27 00:52:35;;;;;;;7.70;4.90;;;;;;;-3.37;100.00;101891.34;684923;28;888;-67
2023/02/27 00:52:55;;;;;;;8.10;5.00;;;;;;;-3.33;100.00;101900.13;682785;28;1310;-67
2023/02/27 00:53:15;;;;;;;7.68;4.90;;;;;;;-3.35;100.00;101891.44;683382;28;754;-67
2023/02/27 00:53:36;;;;;;;7.30;4.83;;;;;;;-3.31;100.00;101898.56;680791;28;1518;-66
2023/02/27 00:53:56;;;;;;;8.25;5.35;;;;;;;-3.30;100.00;101891.00;681379;28;1174;-67
2023/02/27 00:54:17;;;;;;;7.90;5.37;;;;;;;-3.31;100.00;101891.81;682131;28;861;-65
2023/02/27 00:54:37;;;;;;;6.78;4.60;;;;;;;-3.33;100.00;101890.78;682300;28;937;-64
2023/02/27 00:54:58;;;;;;;8.30;4.93;;;;;;;-3.36;100.00;101898.25;685495;28;900;-65
2023/02/27 00:55:18;;;;;;;8.00;4.78;;;;;;;-3.38;100.00;101898.91;684627;28;4516;-65
2023/02/27 00:55:39;;;;;;;7.90;4.72;;;;;;;-3.40;100.00;101893.69;686296;28;878;-65
2023/02/27 00:55:59;;;;;;;8.10;5.00;;;;;;;-3.42;100.00;101893.59;684440;28;822;-65
2023/02/27 00:56:20;;;;;;;7.60;4.95;;;;;;;-3.42;100.00;101896.13;684987;28;1167;-65
2023/02/27 00:56:40;;;;;;;7.10;4.63;;;;;;;-3.41;100.00;101891.91;684786;28;850;-65
2023/02/27 00:57:00;;;;;;;7.18;4.72;;;;;;;-3.42;100.00;101893.59;685169;28;1365;-66
2023/02/27 00:57:21;;;;;;;7.30;4.60;;;;;;;-3.37;100.00;101893.03;682657;28;1159;-65
2023/02/27 00:57:43;;;;;;;8.20;4.97;;;;;;;-3.37;100.00;101893.03;679374;28;1513;-65
2023/02/27 00:58:04;;;;;;;7.27;4.93;;;;;;;-3.39;100.00;101895.47;679268;28;1049;-66
2023/02/27 00:58:24;;;;;;;7.50;4.70;;;;;;;-3.39;100.00;101890.38;679657;28;4342;-65
2023/02/27 00:58:45;;;;;;;7.63;4.50;;;;;;;-3.39;100.00;101886.91;679945;28;878;-65
2023/02/27 00:59:05;;;;;;;7.17;4.40;;;;;;;-3.36;100.00;101893.13;683149;28;953;-65
2023/02/27 00:59:26;;;;;;;7.10;4.60;;;;;;;-3.36;100.00;101889.69;684696;28;1029;-65
2023/02/27 00:59:47;;;;;;;8.85;5.05;;;;;;;-3.31;100.00;101893.44;680151;28;891;-64
2023/02/27 01:00:10;;;;;;;7.45;4.72;;;;;;;-3.31;100.00;101890.88;677813;29;881;-65
2023/02/27 01:00:30;;;;;;;7.40;4.55;;;;;;;-3.31;100.00;101889.25;678985;29;1008;-65
2023/02/27 01:00:50;;;;;;;7.35;4.50;;;;;;;-3.29;100.00;101891.91;676191;29;829;-65
2023/02/27 01:01:11;;;;;;;7.17;4.43;;;;;;;-3.31;100.00;101888.34;675347;29;5345;-65
2023/02/27 01:01:31;;;;;;;7.35;4.40;;;;;;;-3.34;100.00;101894.13;677701;28;954;-66
2023/02/27 01:01:52;;;;;;;7.27;4.30;;;;;;;-3.34;100.00;101888.13;680200;28;1367;-66
2023/02/27 01:02:12;;;;;;;7.37;4.50;;;;;;;-3.34;100.00;101883.00;681907;28;948;-66
2023/02/27 01:02:32;;;;;;;7.03;4.35;;;;;;;-3.38;100.00;101893.81;679652;28;918;-66
2023/02/27 01:02:53;;;;;;;6.87;4.03;;;;;;;-3.37;100.00;101898.13;677147;29;1232;-66
2023/02/27 01:03:13;;;;;;;7.05;4.20;;;;;;;-3.36;100.00;101893.13;679960;29;818;-66
2023/02/27 01:03:34;;;;;;;6.80;4.40;;;;;;;-3.35;100.00;101889.81;677153;28;1122;-66
2023/02/27 01:03:54;;;;;;;6.83;4.43;;;;;;;-3.34;100.00;101888.13;680235;29;805;-66
2023/02/27 01:04:18;;;;;;;6.00;4.20;;;;;;;-3.36;100.00;101889.69;679088;28;4396;-65
2023/02/27 01:04:41;;;;;;;6.57;4.32;;;;;;;-3.35;100.00;101888.91;682357;28;2179;-65
2023/02/27 01:05:02;;;;;;;7.82;4.40;;;;;;;-3.35;100.00;101886.34;681978;28;901;-65
2023/02/27 01:05:24;;;;;;;7.40;4.40;;;;;;;-3.37;100.00;101883.69;683331;28;805;-65
2023/02/27 01:05:45;;;;;;;7.63;4.60;;;;;;;-3.32;100.00;101886.59;684762;28;988;-65
2023/02/27 01:06:08;;;;;;;6.88;4.22;;;;;;;-3.29;100.00;101884.22;679027;28;1979;-65
2023/02/27 01:06:28;;;;;;;7.22;4.35;;;;;;;-3.32;100.00;101882.34;679496;29;908;-65
2023/02/27 01:06:49;;;;;;;7.00;4.20;;;;;;;-3.28;100.00;101885.97;681228;28;966;-65
2023/02/27 01:07:10;;;;;;;7.30;4.40;;;;;;;-3.29;100.00;101887.66;681404;28;4338;-66
2023/02/27 01:07:30;;;;;;;6.10;4.13;;;;;;;-3.31;100.00;101888.34;682917;28;914;-66
2023/02/27 01:07:50;;;;;;;8.07;4.70;;;;;;;-3.27;100.00;101885.22;682768;28;1055;-65
2023/02/27 01:08:11;;;;;;;8.32;4.75;;;;;;;-3.25;100.00;101884.53;686093;28;1239;-66
2023/02/27 01:08:32;;;;;;;8.43;4.47;;;;;;;-3.29;100.00;101884.22;681476;28;1299;-66
2023/02/27 01:08:52;;;;;;;7.70;4.43;;;;;;;-3.31;100.00;101884.13;679749;28;936;-66
2023/02/27 01:09:12;;;;;;;7.83;4.20;;;;;;;-3.31;100.00;101883.22;681184;28;1312;-65
2023/02/27 01:09:33;;;;;;;8.10;4.28;;;;;;;-3.33;100.00;101888.22;682164;28;1611;-65
2023/02/27 01:09:53;;;;;;;7.23;4.20;;;;;;;-3.32;100.00;101884.91;682613;28;845;-67
2023/02/27 01:10:14;;;;;;;7.40;4.30;;;;;;;-3.33;100.00;101888.22;682232;28;4541;-65
2023/02/27 01:10:34;;;;;;;7.15;4.28;;;;;;;-3.34;100.00;101883.00;684790;28;1190;-65
2023/02/27 01:10:56;;;;;;;6.53;4.00;;;;;;;-3.31;100.00;101888.34;687946;28;1212;-65
2023/02/27 01:11:17;;;;;;;6.88;4.05;;;;;;;-3.36;100.00;101890.56;687490;28;1059;-65
2023/02/27 01:11:38;;;;;;;6.75;4.38;;;;;;;-3.37;100.00;101885.34;684674;28;901;-66
2023/02/27 01:11:58;;;;;;;6.97;4.35;;;;;;;-3.37;100.00;101888.78;684247;28;980;-65
2023/02/27 01:12:19;;;;;;;7.50;4.47;;;;;;;-3.37;100.00;101885.34;684988;28;935;-66
2023/02/27 01:12:39;;;;;;;7.35;4.50;;;;;;;-3.38;100.00;101886.13;681004;28;936;-65
2023/02/27 01:13:00;;;;;;;6.22;4.35;;;;;;;-3.39;100.00;101889.44;678275;29;1514;-66
2023/02/27 01:13:20;;;;;;;6.80;4.33;;;;;;;-3.39;100.00;101890.38;679930;28;4362;-64
2023/02/27 01:13:43;;;;;;;7.07;4.20;;;;;;;-3.38;100.00;101883.56;680598;28;937;-66
2023/02/27 01:14:03;;;;;;;6.38;4.30;;;;;;;-3.33;100.00;101885.66;680031;29;813;-65
2023/02/27 01:14:24;;;;;;;8.07;4.50;;;;;;;-3.30;100.00;101887.56;683288;28;1210;-65
2023/02/27 01:14:48;;;;;;;6.40;4.35;;;;;;;-3.34;100.00;101890.69;681887;28;1091;-65
2023/02/27 01:15:11;;;;;;;8.10;4.82;;;;;;;-3.36;100.00;101887.16;683892;28;871;-66
2023/02/27 01:15:32;;;;;;;8.18;4.60;;;;;;;-3.37;100.00;101891.34;684894;28;1123;-63
2023/02/27 01:15:52;;;;;;;7.50;4.30;;;;;;;-3.39;100.00;101884.34;685365;28;884;-64
2023/02/27 01:16:16;;;;;;;7.93;4.40;;;;;;;-3.41;100.00;101889.34;681964;28;4438;-64
2023/02/27 01:16:36;;;;;;;7.03;4.85;;;;;;;-3.38;100.00;101892.13;679406;28;1287;-64
2023/02/27 01:16:57;;;;;;;6.63;4.50;;;;;;;-3.38;100.00;101893.81;677990;29;1378;-65
2023/02/27 01:17:17;;;;;;;6.68;4.40;;;;;;;-3.40;100.00;101892.81;676879;29;1151;-65
2023/02/27 01:17:38;;;;;;;7.18;4.43;;;;;;;-3.41;100.00;101886.78;676614;29;1245;-65
2023/02/27 01:17:58;;;;;;;7.07;4.40;;;;;;;-3.42;100.00;101891.03;678522;28;989;-65
2023/02/27 01:18:19;;;;;;;6.43;4.20;;;;;;;-3.39;100.00;101892.00;677386;29;889;-65
2023/02/27 01:18:40;;;;;;;6.50;4.40;;;;;;;-3.38;100.00;101891.25;678534;28;891;-65
2023/02/27 01:19:01;;;;;;;7.00;4.43;;;;;;;-3.38;100.00;101888.69;679449;29;877;-65
2023/02/27 01:19:22;;;;;;;6.63;4.35;;;;;;;-3.37;100.00;101887.91;681043;28;4349;-65
2023/02/27 01:19:42;;;;;;;7.25;4.60;;;;;;;-3.38;100.00;101892.13;684393;28;965;-65
2023/02/27 01:20:05;;;;;;;7.07;4.25;;;;;;;-3.38;100.00;101896.34;682692;28;979;-65
2023/02/27 01:20:26;;;;;;;6.70;4.40;;;;;;;-3.44;100.00;101884.91;684465;28;1221;-65
2023/02/27 01:20:51;;;;;;;6.28;4.38;;;;;;;-3.44;100.00;101896.81;684354;28;961;-64
2023/02/27 01:21:11;;;;;;;6.60;4.40;;;;;;;-3.46;100.00;101888.13;685177;28;826;-65
2023/02/27 01:21:32;;;;;;;6.35;4.10;;;;;;;-3.48;100.00;101890.56;685460;28;1083;-65
2023/02/27 01:21:52;;;;;;;6.77;4.30;;;;;;;-3.48;100.00;101884.59;683704;28;1130;-65
2023/02/27 01:22:14;;;;;;;7.28;4.40;;;;;;;-3.49;100.00;101881.16;684191;28;4615;-65
2023/02/27 01:22:36;;;;;;;7.80;4.35;;;;;;;-3.52;100.00;101891.13;682715;28;902;-65
2023/02/27 01:22:56;;;;;;;7.20;4.35;;;;;;;-3.55;100.00;101885.81;680017;28;1318;-65
2023/02/27 01:23:16;;;;;;;7.45;4.47;;;;;;;-3.50;100.00;101887.03;679484;28;1016;-65
2023/02/27 01:23:37;;;;;;;6.47;4.47;;;;;;;-3.51;100.00;101887.81;680334;28;1493;-65
2023/02/27 01:23:57;;;;;;;6.50;4.40;;;;;;;-3.51;100.00;101885.25;682644;28;985;-65
2023/02/27 01:24:18;;;;;;;6.23;4.23;;;;;;;-3.50;100.00;101886.13;680195;28;1247;-64
2023/02/27 01:24:41;;;;;;;7.32;4.30;;;;;;;-3.50;100.00;101883.56;682723;28;941;-66
2023/02/27 01:25:03;;;;;;;7.50;4.70;;;;;;;-3.52;100.00;101887.69;685384;28;982;-65
2023/02/27 01:25:24;;;;;;;7.60;4.43;;;;;;;-3.54;100.00;101886.72;674916;28;4348;-67
2023/02/27 01:25:46;;;;;;;7.72;4.50;;;;;;;-3.54;100.00;101879.03;683891;28;999;-66
2023/02/27 01:26:06;;;;;;;9.00;4.47;;;;;;;-3.44;100.00;101882.34;683740;28;1989;-66
2023/02/27 01:26:27;;;;;;;7.47;4.53;;;;;;;-3.44;100.00;101879.78;682361;28;1526;-65
2023/02/27 01:26:48;;;;;;;6.85;4.32;;;;;;;-3.44;100.00;101886.56;683435;28;996;-65
2023/02/27 01:27:08;;;;;;;6.37;4.10;;;;;;;-3.46;100.00;101883.91;682548;28;750;-65
2023/02/27 01:27:30;;;;;;;6.45;4.43;;;;;;;-3.47;100.00;101883.81;682814;28;858;-64
2023/02/27 01:27:51;;;;;;;6.90;4.30;;;;;;;-3.46;100.00;101885.56;682278;28;1353;-67
2023/02/27 01:28:12;;;;;;;7.20;4.53;;;;;;;-3.48;100.00;101885.47;679100;28;4395;-65
2023/02/27 01:28:35;;;;;;;7.55;5.20;;;;;;;-3.51;100.00;101876.69;682254;28;1380;-65
2023/02/27 01:28:56;;;;;;;7.70;4.80;;;;;;;-3.54;100.00;101885.03;679838;28;1001;-65
2023/02/27 01:29:16;;;;;;;9.40;4.60;;;;;;;-3.57;100.00;101882.25;679234;29;876;-65
2023/02/27 01:29:36;;;;;;;7.47;4.60;;;;;;;-3.59;100.00;101881.25;680798;28;972;-65
2023/02/27 01:29:57;;;;;;;8.95;4.93;;;;;;;-3.61;100.00;101886.25;682937;28;910;-65
2023/02/27 01:30:18;;;;;;;9.27;5.30;;;;;;;-3.58;100.00;101882.16;682599;28;770;-66
2023/02/27 01:30:39;;;;;;;7.60;4.90;;;;;;;-3.60;100.00;101887.13;682295;28;898;-66
2023/02/27 01:31:00;;;;;;;7.60;4.75;;;;;;;-3.61;100.00;101878.59;685347;28;912;-65
2023/02/27 01:31:20;;;;;;;8.07;4.80;;;;;;;-3.63;100.00;101881.81;682745;28;4911;-65
2023/02/27 01:31:44;;;;;;;7.57;4.80;;;;;;;-3.62;100.00;101884.47;684345;28;1095;-65
2023/02/27 01:32:04;;;;;;;8.25;4.88;;;;;;;-3.62;100.00;101881.03;683418;28;864;-65
2023/02/27 01:32:25;;;;;;;7.55;4.68;;;;;;;-3.63;100.00;101889.47;682734;28;1403;-65
2023/02/27 01:32:46;;;;;;;7.07;5.07;;;;;;;-3.64;100.00;101882.56;682620;28;1325;-65
2023/02/27 01:33:07;;;;;;;8.13;4.97;;;;;;;-3.66;100.00;101882.47;682653;28;837;-65
2023/02/27 01:33:27;;;;;;;6.95;4.78;;;;;;;-3.64;100.00;101883.47;682210;28;1870;-61
2023/02/27 01:33:48;;;;;;;6.13;4.57;;;;;;;-3.61;100.00;101878.59;682751;28;1028;-65
2023/02/27 01:34:08;;;;;;;6.80;4.80;;;;;;;-3.61;100.00;101877.72;680503;28;4303;-65
2023/02/27 01:34:29;;;;;;;6.97;4.63;;;;;;;-3.60;100.00;101884.56;682897;28;792;-66
2023/02/27 01:34:49;;;;;;;7.47;4.40;;;;;;;-3.58;100.00;101882.16;682336;28;1190;-66
2023/02/27 01:35:10;;;;;;;7.57;4.50;;;;;;;-3.53;100.00;101884.25;681865;28;1032;-67
2023/02/27 01:35:30;;;;;;;7.33;4.60;;;;;;;-3.54;100.00;101887.59;679412;29;953;-66
2023/02/27 01:35:50;;;;;;;6.68;4.53;;;;;;;-3.54;100.00;101879.03;679941;28;1009;-66
2023/02/27 01:36:11;;;;;;;6.70;4.73;;;;;;;-3.53;100.00;101874.03;679937;28;857;-65
2023/02/27 01:36:31;;;;;;;6.47;4.80;;;;;;;-3.53;100.00;101875.69;682470;28;858;-65
2023/02/27 01:36:51;;;;;;;7.33;4.70;;;;;;;-3.53;100.00;101881.72;682748;28;1069;-65
2023/02/27 01:37:12;;;;;;;7.43;4.47;;;;;;;-3.54;100.00;101881.59;678386;28;4949;-65
2023/02/27 01:37:32;;;;;;;7.80;4.50;;;;;;;-3.54;100.00;101877.38;682310;28;1555;-65
2023/02/27 01:37:53;;;;;;;7.60;4.50;;;;;;;-3.56;100.00;101871.22;682298;28;1233;-66
2023/02/27 01:38:13;;;;;;;7.53;4.43;;;;;;;-3.54;100.00;101879.91;682206;28;889;-65
2023/02/27 01:38:35;;;;;;;7.38;4.38;;;;;;;-3.54;100.00;101879.03;679451;29;1462;-66
2023/02/27 01:38:55;;;;;;;7.00;4.50;;;;;;;-3.57;100.00;101878.78;679651;28;5238;-65
2023/02/27 01:39:16;;;;;;;7.47;4.80;;;;;;;-3.60;100.00;101879.47;679601;29;1277;-66